• Join FlightAware (Why Join?)
  • Login
  • US Flag 
01:49AM EDT


 

Airport Tracker/Info


-or-


 

Live Flight TrackerFlight Track Log ✈ SVA2443 ✈ 04-Jul-2013 ✈ LTAF / ADA - OEJN / JED

Flight Track Log - Related Links

Times and Time Zones

All times are in EDT time to prevent confusion due to time zone crossing. See the SVA2443 flight status page for this flight to view local times or setup timezone preferences in your user account.

Time Position Orientation Groundspeed Altitude Reporting Facility
EDT Latitude Longitude Course Direction KTS MPH feet Rate Location/Type
10:48PM 36.9850 35.2950 49° Northeast 6 7  Level FlightAware
10:48PM 36.9860 35.2950 360° North 7 8 60 Level FlightAware
10:49PM 36.9870 35.2950 360° North 5 6 60 Level FlightAware
10:49PM 36.9880 35.2940 321° Northwest 1 1 60 Level FlightAware
10:51PM 36.9890 35.2940 360° North 8 9 120 Level FlightAware
10:52PM 36.9890 35.2920 270° West 6 7 180 Level FlightAware
10:52PM 36.9840 35.2840 232° Southwest 120 138 480 Level FlightAware
10:53PM 36.9770 35.2720 234° Southwest 167 192 400 2,040 Climbing FlightAware
10:53PM 36.9660 35.2530 234° Southwest 158 182 1,400 2,280 Climbing FlightAware
10:53PM 36.9540 35.2300 237° Southwest 161 185 2,500 1,980 Climbing FlightAware
10:54PM 36.9400 35.2050 235° Southwest 170 196 3,400 1,560 Climbing FlightAware
10:54PM 36.9380 35.1960 254° West 182 209 3,600 1,200 Climbing FlightAware
10:54PM 36.9360 35.1790 262° West 202 232 3,900 900 Climbing FlightAware
10:55PM 36.9350 35.1470 268° West 247 284 4,200 1,200 Climbing FlightAware
10:55PM 36.9340 35.1080 268° West 277 319 4,900 2,700 Climbing FlightAware
10:56PM 36.9320 35.0580 267° West 283 326 6,700 3,300 Climbing FlightAware
10:56PM 36.9310 35.0150 268° West 285 328 8,300 3,360 Climbing FlightAware
10:57PM 36.9290 34.9410 268° West 295 339 10,700 2,640 Climbing FlightAware
10:58PM 36.9270 34.8570 268° West 344 396 12,100 2,160 Climbing FlightAware
10:58PM 36.9250 34.7760 268° West 360 414 13,800 2,760 Climbing FlightAware
10:59PM 36.9220 34.6710 268° West 373 429 16,400 1,680 Climbing FlightAware
11:00PM 36.9210 34.6030 269° West 373 429 16,400  Level FlightAware
11:01PM 36.9200 34.5130 269° West 373 429 16,400  Level FlightAware
11:01PM 36.9190 34.4650 269° West 373 429 16,400  Level FlightAware
11:02PM 36.9180 34.3790 269° West 373 429 16,400  Level FlightAware
11:02PM 36.9170 34.3130 269° West 373 429 16,400 2,040 Level FlightAware
11:05PM 36.7336 34.3819 163° South  Level Estimated
11:06PM 36.6426 34.4159 163° South  Level Estimated
11:07PM 36.5516 34.4498 163° South  Level Estimated
11:08PM 36.4606 34.4837 163° South  Level Estimated
11:09PM 36.3696 34.5174 163° South  Level Estimated
11:10PM 36.2785 34.5512 163° South  Level Estimated
11:11PM 36.1875 34.5848 163° South  Level Estimated
11:11PM 36.5380 33.5440 163° South 522 601 34,900  Level FlightAware
11:12PM 36.4810 33.5940 145° Southeast 522 601 34,900  Level FlightAware
11:12PM 36.4000 33.6640 145° Southeast 522 601 34,900  Level FlightAware
11:13PM 36.2030 33.8010 151° Southeast 517 595 34,900  Level FlightAware
11:14PM 36.1240 33.8620 148° Southeast 517 595 34,900  Level FlightAware
11:15PM 36.0600 33.9110 148° Southeast 517 595 34,900  Level FlightAware
11:15PM 35.9810 33.9730 148° Southeast 517 595 34,900  Level FlightAware
11:16PM 35.9190 34.0210 148° Southeast 517 595 34,900  Level FlightAware
11:17PM 35.8390 34.0820 148° Southeast 517 595 34,900  Level FlightAware
11:17PM 35.7740 34.1320 148° Southeast 517 595 34,900  Level FlightAware
11:18PM 35.6910 34.1960 148° Southeast 517 595 34,900  Level FlightAware
11:19PM 35.4790 34.2010 179° South 480 552 34,900  Level FlightAware
11:20PM 35.3910 34.1940 184° South 481 554 34,900  Level FlightAware
11:20PM 35.3060 34.1870 184° South 482 555 34,900  Level FlightAware
11:21PM 35.2140 34.1810 183° South 482 555 34,900  Level FlightAware
11:22PM 35.1200 34.1410 199° South 456 525 34,900  Level FlightAware
11:22PM 35.0530 34.0830 215° Southwest 453 521 34,900  Level FlightAware
11:23PM 34.9770 34.0140 217° Southwest 453 521 34,900  Level FlightAware
11:24PM 34.9100 33.9560 215° Southwest 454 522 34,900  Level FlightAware
11:24PM 34.8400 33.8960 215° Southwest 456 525 34,900  Level FlightAware
11:25PM 34.7780 33.8440 215° Southwest 456 525 34,900  Level FlightAware
11:26PM 34.7000 33.7780 215° Southwest 457 526 34,900  Level FlightAware
11:26PM 34.6300 33.7200 214° Southwest 458 527 34,900  Level FlightAware
11:27PM 34.5700 33.6690 215° Southwest 458 527 34,900  Level FlightAware
11:28PM 34.4920 33.6030 215° Southwest 458 527 34,900  Level FlightAware
11:28PM 34.4220 33.5450 214° Southwest 458 527 34,900  Level FlightAware
11:29PM 34.3540 33.4880 215° Southwest 459 528 34,900  Level FlightAware
11:30PM 34.2750 33.4220 215° Southwest 458 527 34,900  Level FlightAware
11:31PM 34.1970 33.3560 215° Southwest 459 528 34,900  Level FlightAware
11:31PM 34.1300 33.3010 214° Southwest 453 521 34,900  Level FlightAware
11:32PM 34.0530 33.2370 215° Southwest 453 521 34,900  Level FlightAware
11:33PM 33.9810 33.1770 215° Southwest 453 521 34,900  Level FlightAware
11:33PM 33.9050 33.1140 215° Southwest 455 524 34,900  Level FlightAware
11:34PM 33.8320 33.0550 214° Southwest 455 524 34,900  Level FlightAware
11:35PM 33.7610 32.9960 215° Southwest 455 524 34,900  Level FlightAware
11:35PM 33.6810 32.9300 214° Southwest 456 525 34,900  Level FlightAware
11:36PM 33.6280 32.8870 214° Southwest 464 534 34,900  Level FlightAware
11:37PM 33.5680 32.8380 214° Southwest 464 534 34,900  Level FlightAware
11:37PM 33.4750 32.7620 214° Southwest 464 534 34,900  Level FlightAware
11:38PM 33.4030 32.7030 214° Southwest 464 534 34,900  Level FlightAware
11:39PM 33.3310 32.6450 214° Southwest 466 536 34,900  Level FlightAware
11:40PM 33.2620 32.5880 215° Southwest 465 535 34,900  Level FlightAware
11:40PM 33.1770 32.5200 214° Southwest 467 537 34,900  Level FlightAware
11:41PM 33.1170 32.4710 214° Southwest 467 537 34,900  Level FlightAware
11:41PM 33.0430 32.4120 214° Southwest 466 536 34,900  Level FlightAware
11:42PM 32.9830 32.3630 214° Southwest 467 537 34,900  Level FlightAware
11:43PM 32.8880 32.2870 214° Southwest 467 537 34,900  Level FlightAware
11:44PM 32.7940 32.2110 214° Southwest 469 540 34,900  Level FlightAware
11:44PM 32.7200 32.1530 213° Southwest 470 541 34,900  Level FlightAware
11:45PM 32.6430 32.0860 216° Southwest 462 532 34,900  Level FlightAware
11:46PM 32.5730 31.9830 231° Southwest 465 535 34,900  Level FlightAware
11:47PM 32.4950 31.8470 236° Southwest 461 531 34,900  Level FlightAware
11:48PM 32.4590 31.7820 237° Southwest 461 531 34,900  Level FlightAware
11:48PM 32.4220 31.7180 236° Southwest 461 531 34,900  Level FlightAware
11:49PM 32.3730 31.6310 236° Southwest 461 531 34,900  Level FlightAware
11:50PM 32.3360 31.5670 236° Southwest 461 531 34,900  Level FlightAware
11:51PM 32.2880 31.4820 236° Southwest 461 531 34,900  Level FlightAware
11:51PM 32.1950 31.3400 232° Southwest 34,900  Level FlightAware
11:54PM 32.0067 31.4977 145° Southeast  Level Estimated
11:55PM 31.9242 31.5665 145° Southeast  Level Estimated
11:56PM 31.8416 31.6353 145° Southeast  Level Estimated
11:57PM 31.7590 31.7038 145° Southeast  Level Estimated
11:58PM 31.6763 31.7723 145° Southeast  Level Estimated
11:59PM 31.5937 31.8407 145° Southeast  Level Estimated
12:00AM 31.5109 31.9089 145° Southeast  Level Estimated
12:01AM 31.4282 31.9771 145° Southeast  Level Estimated
12:02AM 31.3454 32.0451 145° Southeast  Level Estimated
12:03AM 31.2626 32.1129 145° Southeast  Level Estimated
12:04AM 31.1797 32.1807 145° Southeast  Level Estimated
12:05AM 31.0968 32.2483 145° Southeast  Level Estimated
12:06AM 31.0139 32.3158 145° Southeast  Level Estimated
12:07AM 30.9309 32.3833 145° Southeast  Level Estimated
12:08AM 30.8479 32.4506 145° Southeast  Level Estimated
12:09AM 30.7649 32.5177 145° Southeast  Level Estimated
12:10AM 30.6818 32.5848 145° Southeast  Level Estimated
12:11AM 30.5987 32.6517 145° Southeast  Level Estimated
12:12AM 30.5156 32.7186 145° Southeast  Level Estimated
12:13AM 30.4324 32.7853 145° Southeast  Level Estimated
12:14AM 30.3492 32.8519 145° Southeast  Level Estimated
12:15AM 30.2660 32.9183 145° Southeast  Level Estimated
12:16AM 30.1827 32.9847 145° Southeast  Level Estimated
12:17AM 30.0994 33.0510 145° Southeast  Level Estimated
12:18AM 30.0161 33.1171 145° Southeast  Level Estimated
12:19AM 29.9327 33.1832 146° Southeast  Level Estimated
12:20AM 29.8493 33.2491 146° Southeast  Level Estimated
12:21AM 29.7658 33.3149 146° Southeast  Level Estimated
12:22AM 29.6824 33.3806 146° Southeast  Level Estimated
12:23AM 29.5989 33.4462 146° Southeast  Level Estimated
12:24AM 29.5153 33.5117 146° Southeast  Level Estimated
12:25AM 29.4318 33.5771 146° Southeast  Level Estimated
12:26AM 29.3482 33.6424 146° Southeast  Level Estimated
12:27AM 29.2645 33.7075 146° Southeast  Level Estimated
12:28AM 29.1809 33.7726 146° Southeast  Level Estimated
12:29AM 29.0972 33.8375 146° Southeast  Level Estimated
12:30AM 29.0135 33.9024 146° Southeast  Level Estimated
12:31AM 28.9297 33.9671 146° Southeast  Level Estimated
12:32AM 28.8459 34.0318 146° Southeast  Level Estimated
12:33AM 28.7621 34.0963 146° Southeast  Level Estimated
12:34AM 28.6782 34.1607 146° Southeast  Level Estimated
12:35AM 28.5944 34.2251 146° Southeast  Level Estimated
12:36AM 28.5105 34.2893 146° Southeast  Level Estimated
12:37AM 28.4265 34.3534 146° Southeast  Level Estimated
12:38AM 28.3425 34.4174 146° Southeast  Level Estimated
12:39AM 28.2585 34.4814 146° Southeast  Level Estimated
12:40AM 28.1745 34.5452 146° Southeast  Level Estimated
12:41AM 28.0905 34.6089 146° Southeast  Level Estimated
12:42AM 28.0064 34.6725 146° Southeast  Level Estimated
12:43AM 27.9222 34.7360 146° Southeast  Level Estimated
12:44AM 27.8381 34.7995 146° Southeast  Level Estimated
12:45AM 27.7539 34.8628 146° Southeast  Level Estimated
12:46AM 27.6697 34.9260 146° Southeast  Level Estimated
12:47AM 27.5855 34.9891 146° Southeast  Level Estimated
12:48AM 27.5012 35.0522 146° Southeast  Level Estimated
12:49AM 27.4169 35.1151 146° Southeast  Level Estimated
12:50AM 27.3326 35.1780 146° Southeast  Level Estimated
12:51AM 27.2483 35.2407 147° Southeast  Level Estimated
12:52AM 27.1639 35.3033 147° Southeast  Level Estimated
12:53AM 27.0795 35.3659 147° Southeast  Level Estimated
12:54AM 26.9951 35.4283 147° Southeast  Level Estimated
12:55AM 26.9106 35.4907 147° Southeast  Level Estimated
12:56AM 26.8261 35.5530 147° Southeast  Level Estimated
12:57AM 26.7416 35.6152 147° Southeast  Level Estimated
12:58AM 26.6571 35.6773 147° Southeast  Level Estimated
12:59AM 26.5725 35.7393 147° Southeast  Level Estimated
01:00AM 26.4879 35.8012 147° Southeast  Level Estimated
01:01AM 26.4033 35.8630 147° Southeast  Level Estimated
01:02AM 26.3187 35.9247 147° Southeast  Level Estimated
01:03AM 26.2340 35.9863 147° Southeast  Level Estimated
01:04AM 26.1493 36.0479 147° Southeast  Level Estimated
01:05AM 26.0646 36.1093 147° Southeast  Level Estimated
01:06AM 25.9798 36.1707 147° Southeast  Level Estimated
01:07AM 25.8951 36.2319 147° Southeast  Level Estimated
01:08AM 25.8102 36.2931 147° Southeast  Level Estimated
01:09AM 25.7254 36.3542 147° Southeast  Level Estimated
01:10AM 25.6406 36.4152 147° Southeast  Level Estimated
01:11AM 25.5557 36.4762 147° Southeast  Level Estimated
01:12AM 25.4708 36.5370 147° Southeast  Level Estimated
01:13AM 25.3859 36.5978 147° Southeast  Level Estimated
01:14AM 25.3009 36.6585 147° Southeast  Level Estimated
01:15AM 25.2159 36.7190 147° Southeast  Level Estimated
01:16AM 25.1309 36.7795 147° Southeast  Level Estimated
01:17AM 25.0459 36.8400 147° Southeast  Level Estimated
01:18AM 24.9608 36.9003 147° Southeast  Level Estimated
01:19AM 24.8758 36.9605 147° Southeast  Level Estimated
01:20AM 24.7907 37.0207 147° Southeast  Level Estimated
01:21AM 24.7055 37.0808 147° Southeast  Level Estimated
01:22AM 24.6204 37.1408 147° Southeast  Level Estimated
01:23AM 24.5352 37.2007 147° Southeast  Level Estimated
01:24AM 24.4500 37.2605 147° Southeast  Level Estimated
01:25AM 24.3648 37.3203 147° Southeast  Level Estimated
01:26AM 24.2796 37.3800 147° Southeast  Level Estimated
01:27AM 24.1943 37.4396 147° Southeast  Level Estimated
01:28AM 24.1090 37.4991 148° Southeast  Level Estimated
01:29AM 24.0237 37.5585 148° Southeast  Level Estimated
01:30AM 23.9384 37.6179 148° Southeast  Level Estimated
01:31AM 23.8530 37.6772 148° Southeast  Level Estimated
01:32AM 23.7677 37.7364 148° Southeast  Level Estimated
01:33AM 23.6822 37.7955 148° Southeast  Level Estimated
01:34AM 23.5968 37.8545 148° Southeast  Level Estimated
01:35AM 23.5114 37.9135 148° Southeast  Level Estimated
01:36AM 23.4259 37.9724 148° Southeast  Level Estimated
01:37AM 23.3404 38.0312 148° Southeast  Level Estimated
01:38AM 23.2549 38.0900 148° Southeast  Level Estimated
01:39AM 23.1694 38.1486 148° Southeast  Level Estimated
01:40AM 23.0838 38.2072 148° Southeast  Level Estimated
01:41AM 22.9982 38.2658 148° Southeast  Level Estimated
01:42AM 22.9126 38.3242 148° Southeast  Level Estimated
01:43AM 22.8270 38.3826 148° Southeast  Level Estimated
01:44AM 22.7414 38.4409 148° Southeast  Level Estimated
01:45AM 22.6557 38.4991 148° Southeast  Level Estimated
01:46AM 22.5700 38.5572 148° Southeast  Level Estimated
01:47AM 22.4843 38.6153 148° Southeast  Level Estimated
01:48AM 22.3986 38.6733 148° Southeast  Level Estimated
01:49AM 22.3129 38.7313 148° Southeast  Level Estimated
01:50AM 22.2271 38.7891 148° Southeast  Level Estimated
01:51AM 22.1413 38.8469 148° Southeast  Level Estimated
01:52AM 22.0555 38.9046 148° Southeast  Level Estimated
01:53AM 21.9697 38.9623 148° Southeast  Level Estimated
01:54AM 21.8838 39.0199 148° Southeast  Level Estimated